Time;durP1;ratioP1;P1;durP2;ratioP2;P2;SDS_P1;SDS_P2;PMS_P1;PMS_P2;Temp;Humidity;BMP_temperature;BMP_pressure;BME280_temperature;BME280_humidity;BME280_pressure;Samples;Min_cycle;Max_cycle;Signal;HPM_P1;HPM_P2
2023/07/13 00:01:52;;;;;;;;;2.00;1.00;;;;;20.26;44.13;101120.03;5037258;28;45285;-68
2023/07/13 00:04:19;;;;;;;;;2.00;1.00;;;;;20.20;44.95;101112.44;5033263;28;68545;-68
2023/07/13 00:06:45;;;;;;;;;3.75;1.00;;;;;20.21;44.43;101115.97;5037081;28;45246;-68
2023/07/13 00:09:15;;;;;;;;;4.00;2.00;;;;;20.19;44.73;101116.03;5033406;28;45432;-67
2023/07/13 00:11:40;;;;;;;;;1.25;0.75;;;;;20.18;44.99;101111.66;5046279;28;45201;-68
2023/07/13 00:14:06;;;;;;;;;4.00;1.00;;;;;20.19;44.65;101109.88;5038224;28;45328;-67
2023/07/13 00:16:37;;;;;;;;;6.00;1.50;;;;;20.18;45.04;101118.78;5031004;28;45222;-68
2023/07/13 00:19:02;;;;;;;;;1.50;1.50;;;;;20.16;44.95;101116.22;5039077;28;45563;-67
2023/07/13 00:21:28;;;;;;;;;2.75;0.50;;;;;20.16;44.80;101113.56;5031417;28;45332;-68
2023/07/13 00:23:53;;;;;;;;;3.00;1.75;;;;;20.14;45.32;101117.28;5020762;28;45332;-67
2023/07/13 00:26:18;;;;;;;;;1.00;0.50;;;;;20.13;45.02;101123.53;5036152;28;59158;-68
2023/07/13 00:28:44;;;;;;;;;1.50;1.50;;;;;20.11;45.41;101118.31;5033019;28;58342;-68
2023/07/13 00:31:12;;;;;;;;;2.00;1.00;;;;;20.12;45.33;101121.84;5029013;28;61523;-67
2023/07/13 00:33:37;;;;;;;;;3.00;1.50;;;;;20.12;45.34;101124.50;5037637;28;45304;-67
2023/07/13 00:36:03;;;;;;;;;1.00;1.00;;;;;20.15;44.98;101119.84;5022088;28;69064;-67
2023/07/13 00:38:28;;;;;;;;;1.00;1.00;;;;;20.19;45.02;101124.03;5032083;28;47212;-67
2023/07/13 00:40:54;;;;;;;;;1.25;1.00;;;;;20.19;45.35;101123.16;5029549;28;53892;-68
2023/07/13 00:43:22;;;;;;;;;1.75;1.25;;;;;20.23;45.07;101128.19;5034725;28;45279;-67
2023/07/13 00:45:47;;;;;;;;;1.00;1.00;;;;;20.29;45.04;101125.16;5035244;28;45506;-67
2023/07/13 00:48:15;;;;;;;;;4.25;0.75;;;;;20.30;45.08;101128.66;5039317;28;45296;-67
2023/07/13 00:50:42;;;;;;;;;1.00;1.00;;;;;20.32;45.35;101136.56;5012866;28;45347;-67
2023/07/13 00:53:07;;;;;;;;;1.75;1.00;;;;;20.32;45.24;101132.09;5034451;28;71115;-67
2023/07/13 00:55:33;;;;;;;;;0.00;0.00;;;;;20.30;45.26;101131.31;5046970;28;45998;-68
2023/07/13 00:57:59;;;;;;;;;1.00;1.00;;;;;20.27;45.74;101137.69;5036555;28;68600;-67
2023/07/13 01:00:25;;;;;;;;;1.00;1.00;;;;;20.29;45.17;101137.59;5032652;28;45301;-68
2023/07/13 01:02:51;;;;;;;;;1.00;1.00;;;;;20.29;44.98;101137.59;5036517;28;45298;-67
2023/07/13 01:05:19;;;;;;;;;1.75;1.00;;;;;20.30;45.53;101136.66;5035693;28;67318;-67
2023/07/13 01:07:45;;;;;;;;;1.00;1.00;;;;;20.31;45.54;101135.72;5053221;28;45391;-67
2023/07/13 01:10:12;;;;;;;;;0.50;0.50;;;;;20.32;45.64;101136.56;5033068;28;45382;-67
2023/07/13 01:12:37;;;;;;;;;1.75;1.75;;;;;20.34;45.62;101146.13;5050127;28;45375;-68
2023/07/13 01:15:04;;;;;;;;;2.50;2.00;;;;;20.36;45.53;101130.09;5031857;28;62985;-67
2023/07/13 01:17:32;;;;;;;;;0.50;0.00;;;;;20.45;45.71;101146.34;5019173;28;47979;-67
2023/07/13 01:19:58;;;;;;;;;2.50;1.00;;;;;20.45;45.59;101137.50;5015473;28;45826;-67
2023/07/13 01:22:26;;;;;;;;;1.75;1.00;;;;;20.45;45.70;101146.34;5039736;28;45299;-67
2023/07/13 01:24:53;;;;;;;;;1.00;1.00;;;;;20.40;45.53;101139.59;5037866;28;45180;-68
2023/07/13 01:27:24;;;;;;;;;1.75;1.75;;;;;20.37;45.50;101137.13;5038347;28;46525;-67
2023/07/13 01:29:51;;;;;;;;;1.75;1.00;;;;;20.32;46.16;101145.38;5035074;28;45322;-67
2023/07/13 01:32:22;;;;;;;;;2.75;1.00;;;;;20.30;45.85;101140.16;5034690;28;45546;-67
2023/07/13 01:34:48;;;;;;;;;1.00;1.00;;;;;20.27;46.09;101143.03;5026059;28;45312;-67
2023/07/13 01:37:13;;;;;;;;;3.00;1.25;;;;;20.27;46.11;101140.38;5034467;28;45466;-67
2023/07/13 01:39:39;;;;;;;;;1.00;1.00;;;;;20.30;45.90;101152.59;5024336;28;45546;-67
2023/07/13 01:42:05;;;;;;;;;3.50;1.00;;;;;20.29;45.62;101150.88;5044693;28;45899;-67
2023/07/13 01:44:30;;;;;;;;;1.50;1.00;;;;;20.26;46.59;101151.94;5035167;28;45251;-67
2023/07/13 01:46:56;;;;;;;;;1.25;1.00;;;;;20.26;46.54;101153.75;5029111;28;45490;-67
2023/07/13 01:49:22;;;;;;;;;3.00;1.25;;;;;20.29;46.89;101159.72;5032034;28;62192;-67
2023/07/13 01:51:47;;;;;;;;;1.00;1.00;;;;;20.30;46.61;101148.13;5035474;28;45303;-67
2023/07/13 01:54:12;;;;;;;;;1.00;1.00;;;;;20.34;46.43;101155.91;5025479;28;54016;-67
2023/07/13 01:56:38;;;;;;;;;2.25;1.00;;;;;20.36;46.30;101154.00;5047655;28;57374;-67
2023/07/13 01:59:04;;;;;;;;;2.00;1.00;;;;;20.42;46.31;101156.31;5031902;28;45394;-67
2023/07/13 02:01:29;;;;;;;;;1.25;1.00;;;;;20.44;46.23;101160.56;5033691;28;45408;-67
2023/07/13 02:03:54;;;;;;;;;2.00;1.00;;;;;20.47;45.52;101156.88;5037475;28;45432;-67
2023/07/13 02:06:20;;;;;;;;;6.75;1.00;;;;;20.45;45.74;101166.72;5033992;28;45327;-67
2023/07/13 02:08:46;;;;;;;;;0.00;0.00;;;;;20.46;45.31;101166.63;5035266;28;45512;-67
2023/07/13 02:11:11;;;;;;;;;1.50;1.00;;;;;20.46;45.16;101163.97;5024868;28;55421;-67
2023/07/13 02:13:37;;;;;;;;;2.25;0.00;;;;;20.44;44.92;101159.72;5036711;28;50806;-66
2023/07/13 02:16:02;;;;;;;;;1.00;1.00;;;;;20.45;44.71;101156.97;5030361;28;49585;-67
2023/07/13 02:18:28;;;;;;;;;1.50;1.50;;;;;20.46;44.74;101153.34;5012227;28;45353;-66
2023/07/13 02:20:53;;;;;;;;;3.75;1.00;;;;;20.46;44.77;101158.66;5031710;28;55816;-66
2023/07/13 02:23:18;;;;;;;;;0.00;0.00;;;;;20.42;45.02;101158.97;5028629;28;55066;-66
2023/07/13 02:25:45;;;;;;;;;1.00;1.00;;;;;20.40;44.97;101160.88;5045194;28;45460;-66
2023/07/13 02:28:10;;;;;;;;;1.00;1.00;;;;;20.38;44.96;101162.75;5035476;28;45933;-66
2023/07/13 02:30:35;;;;;;;;;1.00;1.00;;;;;20.32;45.39;101156.00;5021922;28;45368;-66
2023/07/13 02:33:01;;;;;;;;;2.75;0.75;;;;;20.28;44.96;101152.69;5030023;28;45816;-66
2023/07/13 02:35:26;;;;;;;;;0.00;0.00;;;;;20.23;45.22;101143.28;5038331;28;55470;-67
2023/07/13 02:37:51;;;;;;;;;2.00;1.00;;;;;20.23;44.91;101153.91;5028259;28;60009;-67
2023/07/13 02:40:17;;;;;;;;;1.00;0.25;;;;;20.21;44.80;101147.84;5029822;28;46988;-67
2023/07/13 02:42:42;;;;;;;;;3.50;1.25;;;;;20.14;44.90;101143.84;5039207;28;55686;-67
2023/07/13 02:45:09;;;;;;;;;3.00;1.00;;;;;20.17;45.22;101152.50;5033638;28;66150;-66
2023/07/13 02:47:35;;;;;;;;;0.00;0.00;;;;;20.18;44.73;101156.00;5056340;28;45612;-67
2023/07/13 02:50:00;;;;;;;;;0.25;0.25;;;;;20.16;45.08;101160.56;5024402;28;45387;-66
2023/07/13 02:52:26;;;;;;;;;0.75;0.75;;;;;20.09;44.97;101166.22;5034013;28;45553;-66
2023/07/13 02:54:52;;;;;;;;;2.75;0.25;;;;;20.05;44.71;101161.22;5037229;28;45488;-66
2023/07/13 02:57:17;;;;;;;;;3.50;1.00;;;;;20.05;44.78;101162.06;5038715;28;66930;-67
2023/07/13 02:59:42;;;;;;;;;2.25;0.50;;;;;19.99;44.86;101159.78;5035242;28;65896;-66
2023/07/13 03:02:08;;;;;;;;;2.50;1.00;;;;;19.97;45.13;101158.13;5040675;28;67496;-66
2023/07/13 03:04:35;;;;;;;;;1.50;1.00;;;;;20.00;45.09;101163.28;5021913;28;46884;-66
2023/07/13 03:07:01;;;;;;;;;1.75;0.25;;;;;19.98;44.85;101162.53;5042483;28;45240;-67
2023/07/13 03:09:26;;;;;;;;;0.50;0.00;;;;;19.95;45.04;101163.53;5032028;28;45387;-66
2023/07/13 03:11:54;;;;;;;;;1.00;1.00;;;;;19.96;44.71;101165.25;5032411;28;45435;-66
2023/07/13 03:14:19;;;;;;;;;1.50;1.00;;;;;19.95;45.06;101168.84;5035678;28;45441;-66
2023/07/13 03:16:44;;;;;;;;;0.50;0.00;;;;;19.97;45.27;101169.63;5030818;28;70063;-66
2023/07/13 03:19:09;;;;;;;;;0.50;0.50;;;;;19.96;44.98;101172.38;5036898;28;65803;-66
2023/07/13 03:21:35;;;;;;;;;3.00;0.00;;;;;19.94;45.12;101175.13;5030633;28;74674;-67
2023/07/13 03:24:00;;;;;;;;;2.75;0.00;;;;;19.91;44.92;101170.00;5037036;28;45657;-67
2023/07/13 03:26:26;;;;;;;;;1.75;0.25;;;;;19.90;45.14;101171.81;5040824;28;45494;-66
2023/07/13 03:28:51;;;;;;;;;1.00;1.00;;;;;19.91;45.31;101170.84;5037399;28;45359;-66
2023/07/13 03:31:19;;;;;;;;;2.00;1.75;;;;;19.91;45.75;101164.69;5012419;28;71137;-67
2023/07/13 03:33:45;;;;;;;;;1.50;1.00;;;;;19.96;45.33;101173.25;5034445;28;45386;-67
2023/07/13 03:36:18;;;;;;;;;4.00;1.00;;;;;19.94;45.23;101176.91;5038314;28;45359;-66
2023/07/13 03:38:46;;;;;;;;;0.00;0.00;;;;;19.95;45.19;101181.28;5037791;28;45431;-67
2023/07/13 03:41:11;;;;;;;;;1.00;1.00;;;;;19.92;45.65;101169.06;5023620;28;45310;-66
2023/07/13 03:43:38;;;;;;;;;1.50;0.75;;;;;19.92;45.34;101177.03;5036301;28;48413;-66
2023/07/13 03:46:03;;;;;;;;;2.00;0.75;;;;;19.90;45.47;101176.25;5030920;28;45179;-66
2023/07/13 03:48:28;;;;;;;;;1.50;1.00;;;;;19.97;45.93;101185.56;5036816;28;57616;-66
2023/07/13 03:50:54;;;;;;;;;2.00;0.75;;;;;19.99;45.87;101178.38;5036228;28;45639;-66
2023/07/13 03:53:19;;;;;;;;;3.50;0.00;;;;;20.01;45.64;101187.09;5020444;28;67021;-67
2023/07/13 03:55:44;;;;;;;;;1.00;1.00;;;;;20.04;45.95;101184.28;5033424;28;45309;-67
2023/07/13 03:58:35;;;;;;;;;3.25;1.00;;;;;20.08;45.93;101193.75;5036897;28;64705;-66
2023/07/13 04:01:02;;;;;;;;;2.00;1.00;;;;;20.10;46.17;101183.03;5030577;28;45244;-66
2023/07/13 04:03:28;;;;;;;;;0.75;0.75;;;;;20.12;45.74;101183.81;5038133;28;45567;-66
2023/07/13 04:06:00;;;;;;;;;3.00;1.00;;;;;20.08;45.84;101191.09;5023432;28;46401;-66
2023/07/13 04:08:30;;;;;;;;;3.00;1.50;;;;;20.10;45.92;101194.53;5039650;28;45557;-67
2023/07/13 04:10:56;;;;;;;;;0.00;0.00;;;;;20.10;45.95;101196.31;5032628;28;45449;-67
2023/07/13 04:13:22;;;;;;;;;0.00;0.00;;;;;20.13;46.28;101204.09;5038107;28;45522;-67
2023/07/13 04:15:48;;;;;;;;;1.50;0.50;;;;;20.11;46.35;101208.66;5027096;28;45425;-67
2023/07/13 04:18:13;;;;;;;;;1.00;1.00;;;;;20.11;46.44;101208.66;5037459;28;45300;-68
2023/07/13 04:20:38;;;;;;;;;1.00;0.25;;;;;20.10;46.41;101207.81;5028412;28;74528;-68
2023/07/13 04:23:04;;;;;;;;;1.00;1.00;;;;;20.11;46.29;101208.66;5019769;28;47808;-67
2023/07/13 04:25:29;;;;;;;;;0.00;0.00;;;;;20.08;46.45;101207.03;5030011;28;61074;-67
2023/07/13 04:27:54;;;;;;;;;1.00;1.00;;;;;20.09;46.47;101205.22;5023846;28;45223;-68
2023/07/13 04:30:20;;;;;;;;;1.25;1.25;;;;;20.15;46.54;101214.63;5039034;28;45284;-67
2023/07/13 04:32:46;;;;;;;;;1.00;0.00;;;;;20.12;46.41;101204.22;5039088;28;70850;-67
2023/07/13 04:35:11;;;;;;;;;0.75;0.75;;;;;20.07;46.78;101220.41;5037664;28;71412;-67
2023/07/13 04:37:36;;;;;;;;;1.00;1.00;;;;;20.04;46.98;101218.81;5012550;28;45291;-67
2023/07/13 04:40:03;;;;;;;;;6.00;1.25;;;;;20.06;47.27;101229.31;5030229;28;64138;-68
2023/07/13 04:42:29;;;;;;;;;1.00;1.00;;;;;20.06;46.63;101226.66;5029597;28;45295;-68
2023/07/13 04:44:54;;;;;;;;;1.00;1.00;;;;;20.01;46.87;101223.41;5022524;28;45228;-67
2023/07/13 04:47:19;;;;;;;;;1.00;0.00;;;;;19.98;46.79;101220.97;5023289;28;45660;-67
2023/07/13 04:49:45;;;;;;;;;1.50;0.00;;;;;19.95;47.07;101223.78;5038049;28;57555;-67
2023/07/13 04:52:11;;;;;;;;;1.25;1.25;;;;;19.93;47.33;101221.22;5033323;28;48417;-67
2023/07/13 04:54:37;;;;;;;;;2.50;1.50;;;;;19.94;47.30;101228.25;5034223;28;45481;-67
2023/07/13 04:57:06;;;;;;;;;3.00;1.50;;;;;19.91;48.53;101220.47;5022953;28;45384;-67
2023/07/13 04:59:31;;;;;;;;;0.00;0.00;;;;;19.90;47.09;101230.25;5021840;28;45544;-68
2023/07/13 05:01:57;;;;;;;;;1.00;1.00;;;;;19.89;47.76;101225.88;5022797;28;46983;-67
2023/07/13 05:04:22;;;;;;;;;3.50;1.00;;;;;19.96;48.01;101230.84;5036282;28;45353;-67
2023/07/13 05:06:47;;;;;;;;;7.50;1.00;;;;;19.98;48.34;101227.13;5035402;28;59653;-68
2023/07/13 05:09:13;;;;;;;;;1.25;1.25;;;;;20.01;48.25;101231.38;5036106;28;61627;-67
2023/07/13 05:11:38;;;;;;;;;1.00;1.00;;;;;20.00;47.91;101235.00;5027617;28;69634;-67
2023/07/13 05:14:03;;;;;;;;;3.75;1.00;;;;;20.01;48.41;101218.09;5036506;28;45412;-67
2023/07/13 05:16:29;;;;;;;;;2.75;1.00;;;;;20.05;48.36;101212.53;5027281;28;45214;-67
2023/07/13 05:18:54;;;;;;;;;0.75;0.00;;;;;20.05;48.20;101212.53;5034041;28;45290;-67
2023/07/13 05:21:19;;;;;;;;;1.75;1.00;;;;;20.09;48.09;101224.69;5029828;28;73166;-67
2023/07/13 05:23:47;;;;;;;;;3.50;1.00;;;;;20.06;47.85;101219.56;5033646;28;50285;-67
2023/07/13 05:26:12;;;;;;;;;1.00;1.00;;;;;20.11;47.99;101221.94;5044747;28;45315;-67
2023/07/13 05:28:38;;;;;;;;;1.00;0.25;;;;;20.13;47.75;101237.78;5020579;28;45397;-67
2023/07/13 05:31:05;;;;;;;;;1.25;1.00;;;;;20.06;48.08;101234.63;5043305;28;48326;-67
2023/07/13 05:33:30;;;;;;;;;2.00;0.25;;;;;20.05;48.22;101238.25;5035640;28;45702;-68
2023/07/13 05:35:56;;;;;;;;;3.50;1.25;;;;;20.04;48.30;101234.75;5034365;28;45324;-67
2023/07/13 05:38:21;;;;;;;;;2.25;1.25;;;;;20.05;48.26;101239.09;5036207;28;45280;-67
2023/07/13 05:40:47;;;;;;;;;1.00;1.00;;;;;20.08;48.14;101238.09;5033819;28;45202;-67
2023/07/13 05:43:13;;;;;;;;;1.75;0.50;;;;;20.14;47.66;101244.84;5032826;28;45578;-67
2023/07/13 05:45:39;;;;;;;;;0.50;0.50;;;;;20.09;48.24;101248.59;5034042;28;45338;-67
2023/07/13 05:48:04;;;;;;;;;1.00;1.00;;;;;20.07;48.18;101250.50;5038061;28;48149;-68
2023/07/13 05:50:29;;;;;;;;;2.00;1.00;;;;;20.06;48.05;101245.25;5035536;28;46598;-68
2023/07/13 05:52:56;;;;;;;;;1.50;1.50;;;;;20.03;48.13;101251.63;5035828;28;72610;-68
2023/07/13 05:55:21;;;;;;;;;4.50;1.25;;;;;20.10;48.29;101254.78;5031775;28;45521;-67
2023/07/13 05:57:47;;;;;;;;;0.00;0.00;;;;;20.19;48.50;101253.38;5032609;28;45331;-67
2023/07/13 06:00:12;;;;;;;;;1.00;1.00;;;;;20.27;47.86;101254.66;5030253;28;65816;-67
2023/07/13 06:02:38;;;;;;;;;3.25;1.00;;;;;20.35;47.85;101254.19;5033444;28;45426;-68
2023/07/13 06:05:03;;;;;;;;;2.50;1.00;;;;;20.41;47.83;101259.13;5029016;28;60385;-67
2023/07/13 06:07:29;;;;;;;;;1.00;1.00;;;;;20.46;47.82;101261.50;5021003;28;45344;-67
2023/07/13 06:09:54;;;;;;;;;3.50;1.25;;;;;20.48;47.53;101260.44;5017878;28;47375;-67
2023/07/13 06:12:19;;;;;;;;;2.50;1.50;;;;;20.54;47.77;101263.69;5033515;28;63069;-67
2023/07/13 06:14:45;;;;;;;;;2.00;1.50;;;;;20.62;47.44;101267.63;5029926;28;63767;-67
2023/07/13 06:17:10;;;;;;;;;3.25;1.50;;;;;20.70;47.21;101275.16;5032416;28;55212;-67
2023/07/13 06:19:35;;;;;;;;;3.00;1.25;;;;;20.76;46.87;101280.09;5034911;28;71821;-68
2023/07/13 06:22:01;;;;;;;;;1.50;0.00;;;;;20.76;46.96;101280.09;5038512;28;60752;-67
2023/07/13 06:24:26;;;;;;;;;3.25;1.75;;;;;20.75;47.05;101280.19;5033989;28;45941;-67
2023/07/13 06:26:52;;;;;;;;;3.00;1.00;;;;;20.73;46.89;101282.09;5023744;28;47734;-68
2023/07/13 06:29:17;;;;;;;;;1.50;1.00;;;;;20.79;46.75;101293.22;5037890;28;45693;-67
2023/07/13 06:31:42;;;;;;;;;4.00;0.75;;;;;20.82;46.98;101287.72;5025419;28;45398;-67
2023/07/13 06:34:08;;;;;;;;;4.25;2.00;;;;;20.86;47.18;101288.38;5036252;28;45281;-68
2023/07/13 06:36:33;;;;;;;;;1.00;1.00;;;;;20.93;46.90;101287.06;5032321;28;45420;-67
2023/07/13 06:38:59;;;;;;;;;5.00;2.00;;;;;20.99;47.10;101285.81;5043512;28;46522;-67
2023/07/13 06:41:26;;;;;;;;;2.75;1.00;;;;;21.02;46.65;101286.47;5037998;28;62541;-67
2023/07/13 06:43:52;;;;;;;;;2.00;1.00;;;;;21.00;47.04;101293.69;5036329;28;45347;-67
2023/07/13 06:46:17;;;;;;;;;2.50;0.00;;;;;20.96;46.73;101292.16;5032971;28;45408;-68
2023/07/13 06:48:43;;;;;;;;;3.50;1.25;;;;;20.93;47.32;101280.84;5039679;28;46194;-67
2023/07/13 06:51:08;;;;;;;;;1.50;1.00;;;;;20.95;47.42;101290.47;5027132;28;60508;-67
2023/07/13 06:53:34;;;;;;;;;1.00;1.00;;;;;20.96;46.85;101286.00;5022297;28;64587;-67
2023/07/13 06:55:59;;;;;;;;;4.25;1.25;;;;;20.95;47.05;101290.47;5036658;28;45489;-67
2023/07/13 06:58:24;;;;;;;;;3.75;2.00;;;;;20.94;46.71;101287.91;5021320;28;72454;-67
2023/07/13 07:00:51;;;;;;;;;1.00;1.00;;;;;21.02;47.28;101290.94;5033796;28;57215;-67
2023/07/13 07:03:16;;;;;;;;;2.00;1.75;;;;;21.05;47.05;101296.94;5023090;28;45233;-67
2023/07/13 07:05:42;;;;;;;;;3.50;1.00;;;;;21.17;46.77;101299.78;5026812;28;65276;-67
2023/07/13 07:08:07;;;;;;;;;2.50;2.00;;;;;21.24;46.59;101296.63;5027149;28;45958;-67
2023/07/13 07:10:33;;;;;;;;;2.00;1.00;;;;;21.32;46.87;101303.25;5025218;28;45183;-67
2023/07/13 07:12:59;;;;;;;;;1.75;1.75;;;;;21.30;46.42;101300.72;5028381;28;45320;-68
2023/07/13 07:15:25;;;;;;;;;2.50;2.50;;;;;21.24;46.75;101301.09;5037647;28;71401;-68
2023/07/13 07:17:50;;;;;;;;;3.00;1.00;;;;;21.21;47.04;101310.16;5024580;28;46972;-68
2023/07/13 07:20:16;;;;;;;;;2.00;2.00;;;;;21.22;46.81;101306.50;5037386;28;68270;-66
2023/07/13 07:22:41;;;;;;;;;0.75;0.75;;;;;21.25;46.98;101310.81;5040600;28;45621;-66
2023/07/13 07:25:06;;;;;;;;;1.25;1.00;;;;;21.38;47.15;101316.19;5040297;28;45448;-66
2023/07/13 07:27:32;;;;;;;;;1.00;1.00;;;;;21.55;47.61;101310.69;5024119;28;47901;-66
2023/07/13 07:29:58;;;;;;;;;2.00;1.50;;;;;21.71;47.24;101312.34;5031749;28;45328;-67
2023/07/13 07:32:23;;;;;;;;;2.75;2.00;;;;;21.80;46.27;101315.28;5021027;28;45332;-66
2023/07/13 07:34:48;;;;;;;;;4.25;1.50;;;;;21.85;46.40;101317.66;5024756;28;58542;-67
2023/07/13 07:37:14;;;;;;;;;4.50;2.50;;;;;21.90;46.74;101307.56;5030282;28;46468;-67
2023/07/13 07:39:39;;;;;;;;;5.50;3.00;;;;;21.92;46.44;101313.63;5040052;28;45477;-67
2023/07/13 07:42:05;;;;;;;;;2.75;2.00;;;;;21.94;46.21;101322.38;5031998;28;45359;-67
2023/07/13 07:44:31;;;;;;;;;4.75;3.50;;;;;21.81;46.33;101318.78;5023475;28;45288;-67
2023/07/13 07:46:57;;;;;;;;;2.00;2.00;;;;;21.71;46.35;101312.34;5031708;28;46382;-68
2023/07/13 07:49:22;;;;;;;;;4.50;2.00;;;;;21.74;46.30;101320.16;5034488;28;45327;-67
2023/07/13 07:51:48;;;;;;;;;2.50;2.00;;;;;21.71;46.61;101320.34;5040521;28;45415;-68
2023/07/13 07:54:14;;;;;;;;;4.00;3.00;;;;;21.74;46.99;101334.34;5034081;28;45259;-68
2023/07/13 07:56:40;;;;;;;;;3.00;2.00;;;;;21.78;46.44;101330.53;5031506;28;47142;-67
2023/07/13 07:59:05;;;;;;;;;5.00;1.00;;;;;21.80;46.32;101327.75;5017584;28;57210;-67
2023/07/13 08:01:30;;;;;;;;;3.00;3.00;;;;;21.75;46.72;101329.88;5019839;28;51396;-67
2023/07/13 08:03:56;;;;;;;;;5.25;2.50;;;;;21.74;46.88;101326.34;5031826;28;45483;-67
2023/07/13 08:06:21;;;;;;;;;16.50;7.75;;;;;21.72;47.01;101330.06;5035899;28;45501;-67
2023/07/13 08:08:47;;;;;;;;;2.00;1.75;;;;;21.73;47.36;101326.44;5038161;28;45446;-67
2023/07/13 08:11:13;;;;;;;;;3.00;1.00;;;;;21.73;47.19;101335.28;5027269;28;46051;-68
2023/07/13 08:13:38;;;;;;;;;6.00;3.75;;;;;21.78;47.07;101332.34;5022456;28;52436;-67
2023/07/13 08:16:04;;;;;;;;;4.25;2.75;;;;;21.82;47.59;101328.50;5028407;28;57489;-68
2023/07/13 08:18:30;;;;;;;;;5.00;2.00;;;;;21.89;46.90;101332.47;5038537;28;45822;-68
2023/07/13 08:20:58;;;;;;;;;2.75;1.00;;;;;21.97;46.78;101329.31;5039107;28;68533;-68
2023/07/13 08:23:25;;;;;;;;;4.00;3.00;;;;;22.07;46.58;101327.75;5036875;28;45501;-67
2023/07/13 08:25:52;;;;;;;;;3.50;3.00;;;;;22.15;47.17;101341.44;5031048;28;45442;-67
2023/07/13 08:28:17;;;;;;;;;3.75;3.00;;;;;22.22;46.41;101341.88;5038517;28;46010;-67
2023/07/13 08:30:42;;;;;;;;;2.25;2.25;;;;;22.28;46.70;101335.31;5022726;28;65102;-68
2023/07/13 08:33:08;;;;;;;;;5.00;2.75;;;;;22.34;46.35;101337.56;5030841;28;59907;-66
2023/07/13 08:35:33;;;;;;;;;5.50;3.50;;;;;22.46;46.12;101341.22;5036572;28;48011;-67
2023/07/13 08:38:00;;;;;;;;;2.75;2.25;;;;;22.52;45.99;101336.34;5032382;28;66325;-67
2023/07/13 08:40:26;;;;;;;;;2.25;2.00;;;;;22.64;45.52;101334.63;5037617;28;45221;-68
2023/07/13 08:42:55;;;;;;;;;2.50;2.25;;;;;22.75;45.30;101328.56;5039912;28;45631;-68
2023/07/13 08:45:37;;;;;;;;;4.00;2.25;;;;;22.91;45.41;101325.69;5032904;28;45545;-68
2023/07/13 08:48:13;;;;;;;;;3.75;1.25;;;;;22.97;44.64;101329.75;5036085;28;45502;-68
2023/07/13 08:51:19;;;;;;;;;2.75;2.00;;;;;23.03;44.76;101329.31;5034149;28;45207;-68
2023/07/13 08:53:49;;;;;;;;;3.00;3.00;;;;;23.01;44.65;101345.44;5026397;28;45167;-68
2023/07/13 08:56:21;;;;;;;;;2.00;2.00;;;;;22.97;44.36;101337.75;5030506;28;45384;-68
2023/07/13 08:58:49;;;;;;;;;1.50;1.25;;;;;;;;5033231;28;45725;-68
2023/07/13 09:01:22;;;;;;;;;1.75;1.00;;;;;23.13;44.32;101339.25;5033230;28;45440;-68
2023/07/13 09:04:16;;;;;;;;;1.50;1.00;;;;;23.17;43.82;101339.91;5038895;28;45489;-68
2023/07/13 09:06:50;;;;;;;;;2.25;0.25;;;;;23.18;43.75;101340.75;5026805;28;48055;-66
2023/07/13 09:09:34;;;;;;;;;2.25;0.75;;;;;23.23;43.17;101334.16;5037552;28;45462;-66
2023/07/13 09:12:09;;;;;;;;;2.00;2.00;;;;;23.33;42.99;101333.47;5036665;28;45240;-66
2023/07/13 09:14:41;;;;;;;;;3.00;0.25;;;;;23.33;42.62;101339.66;5022081;28;45893;-67
2023/07/13 09:17:14;;;;;;;;;3.00;0.50;;;;;23.44;42.10;101339.78;5037310;28;47091;-67
2023/07/13 09:19:40;;;;;;;;;1.25;1.25;;;;;23.49;41.70;101337.59;5038795;28;45498;-67
2023/07/13 09:22:12;;;;;;;;;4.00;1.50;;;;;23.56;41.94;101338.00;5038002;28;66162;-66
2023/07/13 09:24:41;;;;;;;;;3.00;0.25;;;;;23.78;41.77;101329.31;5038685;28;45402;-67
2023/07/13 09:27:21;;;;;;;;;2.75;1.25;;;;;23.95;41.74;101335.25;5038999;28;46458;-66
2023/07/13 09:30:02;;;;;;;;;0.50;0.50;;;;;23.99;40.64;101328.69;5038595;28;45486;-67
2023/07/13 09:32:29;;;;;;;;;1.25;1.25;;;;;23.93;41.23;101335.34;5034476;28;45261;-67
2023/07/13 09:34:54;;;;;;;;;0.25;0.00;;;;;23.85;41.15;101332.38;5031119;28;45642;-67
2023/07/13 09:37:29;;;;;;;;;1.00;1.00;;;;;23.69;40.79;101328.16;5029673;28;46444;-67
2023/07/13 09:39:55;;;;;;;;;0.25;0.25;;;;;23.59;40.56;101335.13;5021976;28;45211;-67
2023/07/13 09:42:22;;;;;;;;;1.00;1.00;;;;;23.50;40.96;101331.31;5030075;28;45316;-67
2023/07/13 09:44:48;;;;;;;;;1.00;0.50;;;;;23.44;41.05;101330.88;5032169;28;54887;-67
2023/07/13 09:47:38;;;;;;;;;1.00;1.00;;;;;23.33;41.36;101337.00;5038922;28;47646;-67
2023/07/13 09:50:07;;;;;;;;;4.75;1.50;;;;;23.28;41.08;101339.13;5034961;28;45410;-67
2023/07/13 09:52:41;;;;;;;;;5.50;3.00;;;;;23.24;41.52;101341.16;5037926;28;45371;-67
2023/07/13 09:55:26;;;;;;;;;4.25;2.00;;;;;23.23;41.20;101342.16;5034813;28;45437;-67
2023/07/13 09:57:52;;;;;;;;;3.00;0.25;;;;;23.25;41.39;101344.72;5037524;28;45453;-67
2023/07/13 10:00:29;;;;;;;;;2.25;1.25;;;;;23.30;41.27;101353.22;5032797;28;45445;-67
2023/07/13 10:03:20;;;;;;;;;1.50;1.50;;;;;23.39;41.25;101352.59;5035957;28;45352;-67
2023/07/13 10:05:47;;;;;;;;;3.25;2.25;;;;;23.44;40.75;101336.22;5058587;28;45515;-67
2023/07/13 10:08:27;;;;;;;;;1.25;0.25;;;;;23.51;40.92;101348.19;5034883;28;46618;-67
2023/07/13 10:11:02;;;;;;;;;1.75;0.75;;;;;23.60;40.79;101346.66;5037022;28;45284;-68
2023/07/13 10:13:36;;;;;;;;;2.25;0.25;;;;;23.72;40.27;101352.94;5053491;28;45459;-68
2023/07/13 10:16:05;;;;;;;;;4.75;3.00;;;;;23.79;40.53;101357.72;5026692;28;45288;-68
2023/07/13 10:18:36;;;;;;;;;1.50;1.50;;;;;23.90;40.41;101361.47;5020216;28;47040;-68
2023/07/13 10:21:14;;;;;;;;;1.00;1.00;;;;;23.98;39.66;101370.63;5020592;28;45391;-67
2023/07/13 10:23:41;;;;;;;;;0.25;0.25;;;;;23.98;39.73;101372.47;5035346;28;45416;-68
2023/07/13 10:26:12;;;;;;;;;2.75;2.00;;;;;23.95;39.62;101368.19;5025756;28;45446;-68
2023/07/13 10:28:39;;;;;;;;;4.25;2.25;;;;;23.94;39.75;101368.28;5036238;28;45402;-68
2023/07/13 10:31:06;;;;;;;;;5.75;3.25;;;;;23.91;39.26;101369.38;5034963;28;45693;-68
2023/07/13 10:33:31;;;;;;;;;8.50;4.75;;;;;23.82;39.69;101375.41;5031293;28;45351;-68
2023/07/13 10:36:10;;;;;;;;;2.25;2.25;;;;;23.77;39.82;101380.19;5059577;28;67564;-68
2023/07/13 10:38:35;;;;;;;;;4.00;2.25;;;;;23.70;40.05;101377.94;5033313;28;45533;-68
2023/07/13 10:41:07;;;;;;;;;2.25;2.25;;;;;23.69;40.49;101378.94;5033765;28;45308;-68
2023/07/13 10:43:50;;;;;;;;;5.00;2.25;;;;;23.65;40.30;101376.56;5049868;28;45502;-68
2023/07/13 10:46:18;;;;;;;;;2.75;2.25;;;;;23.60;40.31;101373.38;5035418;28;45333;-67
2023/07/13 10:48:50;;;;;;;;;3.75;2.00;;;;;23.59;40.11;101377.88;5036848;28;46272;-68
2023/07/13 10:51:20;;;;;;;;;1.25;1.25;;;;;23.58;40.41;101376.16;5031872;28;45650;-67
2023/07/13 10:53:45;;;;;;;;;3.50;1.25;;;;;23.62;40.67;101379.47;5018859;28;45311;-67
2023/07/13 10:56:13;;;;;;;;;2.25;1.75;;;;;23.78;40.60;101384.56;5028857;28;45805;-68
2023/07/13 10:58:43;;;;;;;;;2.00;1.50;;;;;23.91;40.10;101380.06;5037080;28;45347;-67
2023/07/13 11:01:15;;;;;;;;;1.25;1.25;;;;;23.97;39.91;101386.78;5046073;28;45432;-67
2023/07/13 11:03:43;;;;;;;;;2.25;1.00;;;;;23.93;39.74;101387.97;5014570;28;45459;-67
2023/07/13 11:06:14;;;;;;;;;1.75;1.25;;;;;23.90;39.73;101388.19;5026399;28;45395;-67
2023/07/13 11:08:48;;;;;;;;;3.75;2.00;;;;;23.90;40.39;101388.19;5038072;28;46589;-67
2023/07/13 11:11:33;;;;;;;;;1.75;1.50;;;;;23.88;40.20;101390.97;5030253;28;45292;-68
2023/07/13 11:14:04;;;;;;;;;7.00;3.50;;;;;23.83;40.13;101379.75;5039679;28;45284;-68
2023/07/13 11:16:45;;;;;;;;;1.00;1.00;;;;;23.90;40.00;101382.84;5028665;28;45385;-68
2023/07/13 11:19:10;;;;;;;;;0.75;0.75;;;;;24.01;40.36;101367.75;5021745;28;46458;-68
2023/07/13 11:22:04;;;;;;;;;5.00;0.33;;;;;24.20;39.90;101379.72;5032302;28;45257;-68
2023/07/13 11:24:47;;;;;;;;;4.25;1.25;;;;;24.36;39.99;101371.41;5035743;28;45284;-68
2023/07/13 11:27:38;;;;;;;;;1.25;1.25;;;;;24.53;39.64;101376.38;5027177;28;45305;-67
2023/07/13 11:30:25;;;;;;;;;2.75;1.00;;;;;24.69;39.58;101368.03;5018290;28;45469;-68